createdAt,value
2023-04-04T00:01:37.992Z,99.18
2023-04-04T00:04:23.112Z,99.02
2023-04-04T00:06:55.995Z,98.83
2023-04-04T00:09:44.931Z,99.06
2023-04-04T00:12:17.898Z,99.01
2023-04-04T00:14:48.409Z,98.99
2023-04-04T00:20:15.159Z,98.82
2023-04-04T00:22:47.640Z,99.01
2023-04-04T00:25:17.244Z,98.91
2023-04-04T00:27:46.209Z,98.88
2023-04-04T00:30:20.852Z,98.88
2023-04-04T00:32:49.506Z,98.85
2023-04-04T00:35:17.845Z,99.09
2023-04-04T00:37:50.139Z,99.04
2023-04-04T00:40:18.619Z,99.09
2023-04-04T00:42:48.647Z,99.17
2023-04-04T00:45:18.993Z,99.18
2023-04-04T00:47:47.611Z,99.15
2023-04-04T00:50:23.709Z,99.34
2023-04-04T00:52:52.261Z,99.03
2023-04-04T00:55:26.072Z,99.22
2023-04-04T00:57:55.265Z,99.13
2023-04-04T01:00:32.371Z,98.82
2023-04-04T01:06:58.577Z,98.71
2023-04-04T01:09:26.967Z,98.33
2023-04-04T01:11:55.220Z,98.24
2023-04-04T01:14:22.886Z,98.32
2023-04-04T01:16:54.915Z,98.20
2023-04-04T01:19:31.572Z,98.30
2023-04-04T01:22:02.832Z,98.28
2023-04-04T01:24:34.963Z,98.36
2023-04-04T01:27:08.545Z,98.44
2023-04-04T01:29:44.375Z,98.40
2023-04-04T01:32:31.329Z,98.61
2023-04-04T01:35:12.199Z,98.73
2023-04-04T01:37:50.530Z,98.59
2023-04-04T01:40:21.315Z,98.62
2023-04-04T01:42:52.651Z,98.86
2023-04-04T01:45:22.526Z,98.67
2023-04-04T01:47:49.636Z,98.85
2023-04-04T01:50:22.485Z,98.89
2023-04-04T01:52:51.424Z,98.78
2023-04-04T01:55:19.775Z,98.72
2023-04-04T01:57:49.218Z,98.70
2023-04-04T02:00:20.690Z,98.53
2023-04-04T02:02:50.014Z,98.49
2023-04-04T02:05:17.452Z,98.82
2023-04-04T02:07:50.921Z,98.79
2023-04-04T02:10:31.068Z,98.62
2023-04-04T02:13:00.715Z,98.82
2023-04-04T02:15:27.876Z,98.82
2023-04-04T02:17:56.491Z,98.62
2023-04-04T02:20:23.588Z,98.79
2023-04-04T02:22:58.815Z,98.59
2023-04-04T02:25:26.003Z,98.64
2023-04-04T02:27:58.203Z,98.67
2023-04-04T02:30:25.208Z,98.59
2023-04-04T02:32:54.150Z,98.61
2023-04-04T02:35:21.418Z,98.61
2023-04-04T02:37:48.330Z,98.71
2023-04-04T02:40:29.712Z,98.76
2023-04-04T02:43:04.423Z,98.82
2023-04-04T02:45:33.328Z,98.98
2023-04-04T02:48:09.313Z,98.99
2023-04-04T02:50:44.541Z,99.07
2023-04-04T02:53:12.696Z,99.16
2023-04-04T02:55:41.973Z,99.12
2023-04-04T02:58:18.777Z,99.18
2023-04-04T03:00:46.896Z,99.08
2023-04-04T03:06:10.331Z,98.92
2023-04-04T03:08:39.227Z,99.02
2023-04-04T03:11:06.274Z,99.34
2023-04-04T03:13:37.112Z,99.31
2023-04-04T03:16:08.073Z,99.45
2023-04-04T03:18:48.514Z,99.45
2023-04-04T03:21:19.786Z,99.66
2023-04-04T03:23:49.496Z,99.71
2023-04-04T03:26:24.940Z,99.76
2023-04-04T03:28:55.776Z,99.69
2023-04-04T03:31:24.747Z,99.91
2023-04-04T03:33:53.514Z,99.95
2023-04-04T03:36:25.727Z,99.99
2023-04-04T03:38:56.298Z,99.96
2023-04-04T03:41:24.164Z,100.00
2023-04-04T03:43:52.607Z,100.00
2023-04-04T03:46:22.421Z,99.98
2023-04-04T03:48:50.390Z,100.00
2023-04-04T03:51:26.276Z,100.00
2023-04-04T03:53:53.819Z,100.00
2023-04-04T03:56:21.373Z,99.96
2023-04-04T03:58:48.692Z,99.98
2023-04-04T04:01:20.854Z,99.99
2023-04-04T04:03:49.818Z,99.89
2023-04-04T04:06:17.921Z,99.87
2023-04-04T04:08:53.412Z,99.80
2023-04-04T04:11:20.720Z,99.87
2023-04-04T04:13:48.557Z,99.87
2023-04-04T04:16:15.816Z,99.82
2023-04-04T04:18:45.352Z,99.86
2023-04-04T04:21:15.099Z,99.83
2023-04-04T04:23:49.438Z,99.81
2023-04-04T04:26:18.106Z,99.74
2023-04-04T04:28:45.497Z,99.55
2023-04-04T04:31:15.145Z,99.77
2023-04-04T04:33:54.650Z,99.74
2023-04-04T04:36:38.071Z,99.54
2023-04-04T04:39:16.761Z,99.61
2023-04-04T04:41:54.700Z,99.57
2023-04-04T04:44:27.785Z,99.50
2023-04-04T04:46:55.844Z,99.69
2023-04-04T04:49:32.443Z,99.56
2023-04-04T04:52:10.742Z,99.21
2023-04-04T04:54:40.768Z,99.30
2023-04-04T04:57:08.124Z,99.19
2023-04-04T04:59:37.727Z,99.29
2023-04-04T05:02:08.218Z,99.16
2023-04-04T05:04:41.686Z,99.18
2023-04-04T05:07:11.898Z,98.70
2023-04-04T05:09:39.865Z,98.63
2023-04-04T05:12:10.601Z,98.53
2023-04-04T05:14:46.628Z,98.63
2023-04-04T05:17:19.676Z,98.47
2023-04-04T05:19:48.446Z,98.30
2023-04-04T05:22:19.017Z,98.55
2023-04-04T05:24:56.557Z,98.52
2023-04-04T05:27:26.574Z,98.18
2023-04-04T05:30:07.553Z,98.53
2023-04-04T05:32:52.474Z,98.55
2023-04-04T05:35:25.567Z,98.61
2023-04-04T05:37:57.587Z,98.19
2023-04-04T05:40:27.833Z,98.33
2023-04-04T05:43:06.065Z,98.55
2023-04-04T05:45:41.962Z,98.65
2023-04-04T05:48:15.264Z,99.03
2023-04-04T05:50:48.724Z,98.76
2023-04-04T05:53:18.522Z,98.72
2023-04-04T05:55:51.252Z,98.57
2023-04-04T05:58:25.071Z,98.41
2023-04-04T06:00:57.308Z,98.16
2023-04-04T06:03:25.370Z,97.94
2023-04-04T06:05:52.573Z,98.19
2023-04-04T06:08:27.029Z,97.72
2023-04-04T06:10:55.494Z,97.65
2023-04-04T06:13:31.959Z,97.88
2023-04-04T06:16:06.220Z,98.22
2023-04-04T06:18:33.113Z,97.93
2023-04-04T06:21:04.275Z,98.07
2023-04-04T06:23:31.841Z,97.72
2023-04-04T06:26:10.056Z,97.76
2023-04-04T06:28:51.193Z,97.75
2023-04-04T06:31:29.802Z,97.65
2023-04-04T06:34:01.704Z,97.52
2023-04-04T06:36:34.182Z,97.64
2023-04-04T06:39:06.388Z,97.11
2023-04-04T06:41:34.398Z,97.07
2023-04-04T06:44:01.855Z,97.04
2023-04-04T06:46:32.673Z,96.78
2023-04-04T06:49:06.557Z,96.63
2023-04-04T06:51:36.060Z,96.45
2023-04-04T06:54:11.682Z,96.78
2023-04-04T06:56:39.885Z,96.34
2023-04-04T06:59:17.700Z,96.25
2023-04-04T07:01:45.204Z,96.16
2023-04-04T07:04:12.877Z,95.57
2023-04-04T07:06:39.608Z,95.20
2023-04-04T07:09:15.451Z,95.12
2023-04-04T07:11:48.855Z,95.12
2023-04-04T07:14:32.436Z,94.46
2023-04-04T07:17:00.868Z,94.10
2023-04-04T07:19:29.580Z,94.00
2023-04-04T07:21:57.808Z,93.84
2023-04-04T07:24:28.839Z,93.97
2023-04-04T07:26:58.405Z,93.87
2023-04-04T07:29:25.639Z,93.87
2023-04-04T07:31:52.747Z,93.60
2023-04-04T07:34:25.524Z,93.28
2023-04-04T07:36:54.183Z,92.86
2023-04-04T07:39:23.173Z,92.55
2023-04-04T07:41:59.644Z,92.34
2023-04-04T07:44:28.056Z,92.65
2023-04-04T07:47:06.282Z,92.70
2023-04-04T07:49:37.407Z,92.08
2023-04-04T07:52:04.525Z,92.26
2023-04-04T07:54:31.722Z,92.18
2023-04-04T07:57:01.252Z,92.16
2023-04-04T07:59:29.206Z,91.62
2023-04-04T08:01:56.453Z,91.88
2023-04-04T08:04:23.683Z,91.41
2023-04-04T08:06:55.586Z,91.24
2023-04-04T08:09:25.614Z,91.41
2023-04-04T08:11:53.074Z,91.86
2023-04-04T08:14:24.144Z,91.21
2023-04-04T08:16:58.612Z,91.41
2023-04-04T08:19:25.528Z,91.19
2023-04-04T08:21:53.257Z,90.61
2023-04-04T08:24:21.885Z,90.78
2023-04-04T08:26:54.898Z,90.16
2023-04-04T08:29:34.148Z,89.94
2023-04-04T08:32:01.282Z,89.82
2023-04-04T08:34:30.327Z,89.58
2023-04-04T08:36:57.460Z,89.84
2023-04-04T08:39:31.438Z,89.65
2023-04-04T08:42:06.017Z,90.00
2023-04-04T08:44:37.917Z,89.70
2023-04-04T08:47:05.353Z,89.69
2023-04-04T08:49:37.363Z,89.85
2023-04-04T08:52:05.883Z,89.76
2023-04-04T08:54:36.894Z,89.18
2023-04-04T08:57:04.922Z,87.94
2023-04-04T08:59:39.774Z,87.18
2023-04-04T09:02:12.253Z,86.99
2023-04-04T09:04:39.382Z,86.76
2023-04-04T09:07:06.532Z,86.64
2023-04-04T09:09:35.956Z,85.83
2023-04-04T09:12:03.097Z,85.89
2023-04-04T09:14:32.080Z,86.07
2023-04-04T09:17:00.387Z,86.09
2023-04-04T09:19:27.307Z,85.62
2023-04-04T09:22:02.954Z,85.22
2023-04-04T09:24:40.242Z,84.97
2023-04-04T09:27:12.716Z,83.18
2023-04-04T09:29:44.371Z,82.85
2023-04-04T09:32:15.762Z,83.25
2023-04-04T09:34:51.296Z,83.18
2023-04-04T09:37:18.239Z,83.80
2023-04-04T09:39:55.295Z,83.56
2023-04-04T09:42:22.113Z,83.36
2023-04-04T09:45:01.169Z,83.26
2023-04-04T09:47:31.755Z,82.65
2023-04-04T09:50:03.962Z,82.52
2023-04-04T09:52:33.103Z,81.76
2023-04-04T09:55:03.592Z,82.07
2023-04-04T09:57:37.626Z,82.28
2023-04-04T10:00:08.667Z,82.08
2023-04-04T10:02:46.769Z,81.91
2023-04-04T10:08:15.391Z,80.70
2023-04-04T10:11:09.797Z,80.73
2023-04-04T10:13:44.201Z,80.65
2023-04-04T10:16:11.659Z,80.61
2023-04-04T10:18:42.963Z,80.25
2023-04-04T10:21:15.162Z,79.87
2023-04-04T10:23:47.314Z,79.41
2023-04-04T10:26:17.352Z,79.46
2023-04-04T10:28:45.090Z,79.13
2023-04-04T10:31:19.242Z,78.82
2023-04-04T10:34:02.939Z,78.51
2023-04-04T10:36:32.439Z,77.55
2023-04-04T10:39:15.469Z,77.95
2023-04-04T10:41:42.613Z,78.28
2023-04-04T10:44:18.468Z,77.25
2023-04-04T10:46:47.152Z,77.39
2023-04-04T10:49:14.817Z,77.79
2023-04-04T10:51:55.139Z,77.66
2023-04-04T10:54:22.947Z,77.10
2023-04-04T10:56:50.400Z,77.44
2023-04-04T10:59:17.779Z,77.40
2023-04-04T11:01:53.197Z,77.31
2023-04-04T11:04:21.619Z,77.44
2023-04-04T11:07:21.496Z,77.92
2023-04-04T11:09:55.975Z,77.64
2023-04-04T11:12:27.470Z,77.88
2023-04-04T11:15:09.791Z,78.38
2023-04-04T11:17:48.609Z,79.05
2023-04-04T11:20:17.198Z,79.15
2023-04-04T11:22:45.281Z,78.73
2023-04-04T11:25:27.949Z,77.63
2023-04-04T11:27:56.050Z,78.18
2023-04-04T11:30:24.596Z,77.33
2023-04-04T11:33:04.226Z,77.24
2023-04-04T11:35:38.850Z,77.36
2023-04-04T11:38:14.306Z,77.01
2023-04-04T11:40:42.461Z,77.18
2023-04-04T11:43:16.602Z,77.68
2023-04-04T11:45:44.173Z,77.23
2023-04-04T11:48:20.636Z,76.96
2023-04-04T11:50:50.860Z,76.82
2023-04-04T11:53:18.832Z,76.88
2023-04-04T11:55:49.856Z,77.40
2023-04-04T11:58:18.187Z,77.87
2023-04-04T12:00:47.287Z,77.45
2023-04-04T12:03:16.935Z,77.23
2023-04-04T12:05:48.198Z,77.52
2023-04-04T12:08:18.501Z,77.49
2023-04-04T12:10:47.162Z,77.38
2023-04-04T12:13:15.102Z,77.27
2023-04-04T12:15:44.542Z,77.28
2023-04-04T12:18:19.649Z,77.21
2023-04-04T12:20:50.683Z,77.08
2023-04-04T12:23:20.569Z,77.33
2023-04-04T12:25:52.982Z,77.65
2023-04-04T12:28:23.745Z,77.15
2023-04-04T12:30:51.116Z,77.01
2023-04-04T12:33:18.693Z,77.95
2023-04-04T12:35:52.879Z,78.64
2023-04-04T12:39:07.067Z,78.60
2023-04-04T12:42:08.790Z,78.74
2023-04-04T12:44:38.153Z,78.67
2023-04-04T12:47:10.853Z,78.63
2023-04-04T12:49:39.454Z,78.30
2023-04-04T12:52:09.521Z,77.97
2023-04-04T12:54:40.232Z,78.13
2023-04-04T12:57:12.656Z,77.77
2023-04-04T12:59:41.442Z,77.70
2023-04-04T13:02:15.017Z,78.11
2023-04-04T13:04:47.665Z,78.32
2023-04-04T13:07:26.056Z,79.32
2023-04-04T13:09:55.569Z,79.68
2023-04-04T13:13:00.360Z,80.40
2023-04-04T13:15:48.593Z,80.83
2023-04-04T13:18:22.509Z,81.22
2023-04-04T13:20:51.780Z,81.64
2023-04-04T13:23:21.000Z,81.66
2023-04-04T13:25:50.966Z,81.50
2023-04-04T13:28:19.505Z,81.28
2023-04-04T13:30:51.165Z,81.40
2023-04-04T13:33:22.640Z,81.69
2023-04-04T13:35:51.565Z,81.49
2023-04-04T13:38:20.563Z,81.38
2023-04-04T13:40:49.157Z,81.55
2023-04-04T13:43:26.870Z,81.53
2023-04-04T13:45:59.141Z,81.60
2023-04-04T13:48:27.416Z,82.12
2023-04-04T13:50:56.194Z,82.13
2023-04-04T13:53:24.649Z,81.82
2023-04-04T13:56:16.771Z,81.88
2023-04-04T13:58:46.644Z,81.94
2023-04-04T14:01:14.909Z,82.14
2023-04-04T14:03:44.661Z,81.96
2023-04-04T14:06:13.095Z,82.14
2023-04-04T14:08:41.378Z,81.85
2023-04-04T14:11:11.904Z,81.48
2023-04-04T14:13:40.386Z,81.83
2023-04-04T14:16:09.322Z,81.97
2023-04-04T14:18:37.757Z,81.91
2023-04-04T14:21:06.344Z,81.87
2023-04-04T14:23:34.536Z,82.00
2023-04-04T14:26:05.453Z,81.91
2023-04-04T14:28:38.852Z,82.12
2023-04-04T14:31:07.356Z,82.17
2023-04-04T14:33:35.819Z,82.04
2023-04-04T14:36:04.498Z,82.29
2023-04-04T14:38:32.776Z,82.08
2023-04-04T14:41:02.121Z,82.35
2023-04-04T14:43:30.355Z,82.42
2023-04-04T14:45:59.890Z,82.74
2023-04-04T14:48:28.239Z,82.91
2023-04-04T14:50:56.412Z,82.89
2023-04-04T14:53:27.867Z,83.39
2023-04-04T14:55:57.023Z,83.59
2023-04-04T14:58:25.958Z,83.63
2023-04-04T15:00:54.648Z,83.51
2023-04-04T15:03:26.225Z,83.60
2023-04-04T15:05:57.972Z,83.61
2023-04-04T15:08:29.202Z,83.77
2023-04-04T15:10:59.632Z,83.99
2023-04-04T15:13:33.538Z,83.94
2023-04-04T15:16:02.155Z,83.84
2023-04-04T15:18:30.631Z,83.98
2023-04-04T15:21:00.837Z,83.86
2023-04-04T15:23:29.713Z,83.89
2023-04-04T15:26:00.248Z,84.40
2023-04-04T15:28:28.930Z,84.20
2023-04-04T15:31:00.636Z,84.08
2023-04-04T15:33:28.861Z,83.96
2023-04-04T15:35:57.140Z,83.50
2023-04-04T15:38:25.824Z,83.82
2023-04-04T15:40:56.458Z,84.06
2023-04-04T15:43:24.894Z,84.19
2023-04-04T15:45:56.297Z,83.89
2023-04-04T15:48:28.765Z,83.73
2023-04-04T15:51:01.042Z,83.83
2023-04-04T15:53:31.172Z,84.02
2023-04-04T15:56:05.776Z,84.06
2023-04-04T15:58:34.362Z,84.28
2023-04-04T16:01:15.798Z,84.33
2023-04-04T16:03:45.857Z,84.60
2023-04-04T16:06:15.377Z,84.61
2023-04-04T16:08:48.769Z,84.40
2023-04-04T16:11:21.250Z,84.54
2023-04-04T16:13:50.139Z,85.03
2023-04-04T16:16:25.998Z,85.27
2023-04-04T16:18:56.109Z,85.37
2023-04-04T16:24:21.130Z,85.33
2023-04-04T16:26:50.433Z,85.69
2023-04-04T16:29:19.228Z,85.91
2023-04-04T16:32:01.325Z,86.03
2023-04-04T16:34:30.422Z,86.06
2023-04-04T16:37:24.092Z,86.29
2023-04-04T16:39:52.987Z,86.29
2023-04-04T16:42:29.458Z,86.67
2023-04-04T16:44:57.728Z,86.83
2023-04-04T16:47:27.643Z,86.38
2023-04-04T16:49:59.121Z,86.71
2023-04-04T16:52:27.581Z,86.79
2023-04-04T16:55:06.551Z,86.93
2023-04-04T16:57:42.897Z,86.85
2023-04-04T17:00:11.980Z,86.91
2023-04-04T17:02:50.342Z,87.04
2023-04-04T17:05:18.864Z,87.46
2023-04-04T17:07:47.140Z,87.64
2023-04-04T17:10:15.723Z,87.43
2023-04-04T17:12:48.504Z,87.69
2023-04-04T17:15:17.898Z,87.65
2023-04-04T17:17:49.681Z,88.07
2023-04-04T17:20:30.198Z,87.91
2023-04-04T17:23:00.151Z,87.97
2023-04-04T17:25:33.544Z,88.03
2023-04-04T17:28:04.480Z,88.31
2023-04-04T17:30:32.605Z,88.26
2023-04-04T17:33:08.333Z,88.05
2023-04-04T17:35:44.632Z,88.40
2023-04-04T17:38:17.460Z,88.54
2023-04-04T17:40:46.346Z,88.55
2023-04-04T17:43:14.523Z,88.63
2023-04-04T17:45:44.388Z,89.01
2023-04-04T17:48:21.119Z,89.47
2023-04-04T17:50:50.618Z,89.55
2023-04-04T17:53:26.576Z,89.81
2023-04-04T17:55:54.853Z,89.89
2023-04-04T17:58:23.188Z,90.07
2023-04-04T18:00:56.115Z,90.43
2023-04-04T18:03:25.576Z,90.49
2023-04-04T18:05:54.319Z,90.99
2023-04-04T18:08:22.902Z,90.90
2023-04-04T18:10:52.094Z,90.93
2023-04-04T18:13:23.237Z,91.57
2023-04-04T18:15:53.556Z,91.86
2023-04-04T18:18:22.961Z,92.16
2023-04-04T18:20:54.671Z,92.19
2023-04-04T18:23:24.460Z,92.47
2023-04-04T18:25:52.709Z,92.85
2023-04-04T18:28:21.703Z,93.20
2023-04-04T18:30:50.182Z,93.40
2023-04-04T18:33:20.096Z,93.92
2023-04-04T18:35:50.753Z,93.91
2023-04-04T18:38:19.525Z,94.19
2023-04-04T18:40:53.227Z,94.42
2023-04-04T18:43:22.157Z,94.94
2023-04-04T18:45:50.907Z,94.74
2023-04-04T18:48:19.490Z,95.18
2023-04-04T18:50:47.674Z,95.55
2023-04-04T18:53:16.655Z,95.58
2023-04-04T18:55:46.466Z,95.85
2023-04-04T18:58:16.089Z,95.76
2023-04-04T19:00:44.830Z,95.89
2023-04-04T19:03:15.457Z,96.18
2023-04-04T19:05:47.532Z,96.56
2023-04-04T19:08:16.670Z,96.76
2023-04-04T19:10:47.492Z,96.85
2023-04-04T19:13:19.970Z,97.21
2023-04-04T19:15:49.893Z,96.89
2023-04-04T19:18:25.334Z,97.14
2023-04-04T19:20:54.224Z,97.51
2023-04-04T19:23:22.605Z,97.47
2023-04-04T19:25:51.289Z,97.53
2023-04-04T19:28:19.772Z,97.55
2023-04-04T19:30:49.308Z,97.64
2023-04-04T19:33:20.326Z,97.72
2023-04-04T19:35:54.811Z,97.75
2023-04-04T19:38:37.552Z,98.09
2023-04-04T19:41:23.043Z,97.89
2023-04-04T19:43:51.316Z,98.15
2023-04-04T19:46:22.989Z,98.23
2023-04-04T19:48:55.856Z,98.51
2023-04-04T19:51:24.131Z,98.87
2023-04-04T19:54:00.915Z,99.01
2023-04-04T19:56:29.489Z,98.88
2023-04-04T19:59:08.116Z,98.99
2023-04-04T20:01:44.883Z,99.57
2023-04-04T20:04:18.834Z,99.43
2023-04-04T20:06:49.226Z,99.62
2023-04-04T20:09:43.869Z,99.71
2023-04-04T20:12:12.445Z,99.82
2023-04-04T20:14:41.595Z,99.74
2023-04-04T20:17:10.077Z,99.84
2023-04-04T20:19:38.664Z,99.75
2023-04-04T20:22:07.960Z,99.67
2023-04-04T20:24:36.750Z,99.85
2023-04-04T20:27:05.100Z,99.83
2023-04-04T20:29:36.374Z,99.99
2023-04-04T20:32:07.993Z,99.89
2023-04-04T20:34:40.915Z,99.92
2023-04-04T20:37:26.523Z,99.99
2023-04-04T20:39:58.746Z,100.00
2023-04-04T20:42:29.908Z,100.00
2023-04-04T20:45:21.284Z,100.00
2023-04-04T20:48:01.080Z,100.00
2023-04-04T20:50:35.004Z,100.00
2023-04-04T20:53:05.005Z,100.00
2023-04-04T20:55:44.345Z,100.00
2023-04-04T20:58:33.507Z,100.00
2023-04-04T21:01:04.503Z,100.00
2023-04-04T21:03:48.703Z,100.00
2023-04-04T21:06:20.158Z,100.00
2023-04-04T21:08:53.909Z,100.00
2023-04-04T21:11:29.149Z,100.00
2023-04-04T21:13:57.724Z,100.00
2023-04-04T21:16:30.579Z,100.00
2023-04-04T21:19:03.670Z,100.00
